sensor_id;sensor_type;location;lat;lon;timestamp;P1;durP1;ratioP1;P2;durP2;ratioP2
20890;SDS011;10605;52.968;8.844;2022-09-17T00:00:38;19.45;;;2.88;;
20890;SDS011;10605;52.968;8.844;2022-09-17T00:03:04;23.25;;;2.60;;
20890;SDS011;10605;52.968;8.844;2022-09-17T00:05:30;21.30;;;1.83;;
20890;SDS011;10605;52.968;8.844;2022-09-17T00:07:56;13.82;;;2.42;;
20890;SDS011;10605;52.968;8.844;2022-09-17T00:10:22;17.20;;;2.13;;
20890;SDS011;10605;52.968;8.844;2022-09-17T00:12:48;15.02;;;1.90;;
20890;SDS011;10605;52.968;8.844;2022-09-17T00:15:14;16.63;;;2.03;;
20890;SDS011;10605;52.968;8.844;2022-09-17T00:17:40;21.65;;;2.45;;
20890;SDS011;10605;52.968;8.844;2022-09-17T00:20:07;24.27;;;2.90;;
20890;SDS011;10605;52.968;8.844;2022-09-17T00:22:37;24.95;;;3.28;;
20890;SDS011;10605;52.968;8.844;2022-09-17T00:25:04;22.83;;;2.42;;
20890;SDS011;10605;52.968;8.844;2022-09-17T00:27:30;20.63;;;2.50;;
20890;SDS011;10605;52.968;8.844;2022-09-17T00:29:56;12.82;;;3.47;;
20890;SDS011;10605;52.968;8.844;2022-09-17T00:32:22;19.10;;;2.20;;
20890;SDS011;10605;52.968;8.844;2022-09-17T00:34:48;20.90;;;2.22;;
20890;SDS011;10605;52.968;8.844;2022-09-17T00:37:16;24.90;;;2.50;;
20890;SDS011;10605;52.968;8.844;2022-09-17T00:39:42;20.83;;;2.72;;
20890;SDS011;10605;52.968;8.844;2022-09-17T00:42:09;11.98;;;2.40;;
20890;SDS011;10605;52.968;8.844;2022-09-17T00:44:41;15.50;;;2.03;;
20890;SDS011;10605;52.968;8.844;2022-09-17T00:47:23;22.13;;;2.50;;
20890;SDS011;10605;52.968;8.844;2022-09-17T00:50:29;17.95;;;2.28;;
20890;SDS011;10605;52.968;8.844;2022-09-17T00:53:03;16.98;;;2.28;;
20890;SDS011;10605;52.968;8.844;2022-09-17T00:55:45;16.42;;;2.55;;
20890;SDS011;10605;52.968;8.844;2022-09-17T00:58:17;15.85;;;2.83;;
20890;SDS011;10605;52.968;8.844;2022-09-17T01:00:46;16.27;;;2.47;;
20890;SDS011;10605;52.968;8.844;2022-09-17T01:03:12;18.02;;;2.92;;
20890;SDS011;10605;52.968;8.844;2022-09-17T01:05:46;19.77;;;2.90;;
20890;SDS011;10605;52.968;8.844;2022-09-17T01:11:14;24.17;;;2.45;;
20890;SDS011;10605;52.968;8.844;2022-09-17T01:16:35;22.38;;;2.85;;
20890;SDS011;10605;52.968;8.844;2022-09-17T01:22:58;19.40;;;2.38;;
20890;SDS011;10605;52.968;8.844;2022-09-17T01:31:32;19.33;;;2.88;;
20890;SDS011;10605;52.968;8.844;2022-09-17T01:37:10;28.08;;;3.10;;
20890;SDS011;10605;52.968;8.844;2022-09-17T01:47:35;18.70;;;3.08;;
20890;SDS011;10605;52.968;8.844;2022-09-17T01:50:26;20.65;;;3.03;;
20890;SDS011;10605;52.968;8.844;2022-09-17T01:52:55;20.85;;;2.10;;
20890;SDS011;10605;52.968;8.844;2022-09-17T01:55:23;19.67;;;2.55;;
20890;SDS011;10605;52.968;8.844;2022-09-17T01:57:57;17.00;;;2.67;;
20890;SDS011;10605;52.968;8.844;2022-09-17T02:00:25;24.45;;;2.90;;
20890;SDS011;10605;52.968;8.844;2022-09-17T02:02:56;17.25;;;2.38;;
20890;SDS011;10605;52.968;8.844;2022-09-17T02:05:29;20.35;;;2.38;;
20890;SDS011;10605;52.968;8.844;2022-09-17T02:10:44;23.80;;;2.58;;
20890;SDS011;10605;52.968;8.844;2022-09-17T02:13:36;26.05;;;3.15;;
20890;SDS011;10605;52.968;8.844;2022-09-17T02:16:12;21.58;;;2.80;;
20890;SDS011;10605;52.968;8.844;2022-09-17T02:21:44;18.88;;;2.15;;
20890;SDS011;10605;52.968;8.844;2022-09-17T02:24:21;18.30;;;2.35;;
20890;SDS011;10605;52.968;8.844;2022-09-17T02:29:33;20.55;;;2.90;;
20890;SDS011;10605;52.968;8.844;2022-09-17T02:32:02;21.13;;;2.83;;
20890;SDS011;10605;52.968;8.844;2022-09-17T02:34:28;25.77;;;3.65;;
20890;SDS011;10605;52.968;8.844;2022-09-17T02:36:54;20.70;;;3.53;;
20890;SDS011;10605;52.968;8.844;2022-09-17T02:39:22;24.65;;;3.42;;
20890;SDS011;10605;52.968;8.844;2022-09-17T02:42:02;17.27;;;2.33;;
20890;SDS011;10605;52.968;8.844;2022-09-17T02:50:11;19.58;;;2.28;;
20890;SDS011;10605;52.968;8.844;2022-09-17T02:53:17;19.48;;;2.25;;
20890;SDS011;10605;52.968;8.844;2022-09-17T02:55:53;22.70;;;3.08;;
20890;SDS011;10605;52.968;8.844;2022-09-17T03:01:31;15.93;;;2.15;;
20890;SDS011;10605;52.968;8.844;2022-09-17T03:04:02;23.67;;;2.50;;
20890;SDS011;10605;52.968;8.844;2022-09-17T03:06:31;13.32;;;1.88;;
20890;SDS011;10605;52.968;8.844;2022-09-17T03:08:56;13.02;;;2.05;;
20890;SDS011;10605;52.968;8.844;2022-09-17T03:11:22;14.70;;;2.83;;
20890;SDS011;10605;52.968;8.844;2022-09-17T03:13:49;15.30;;;2.17;;
20890;SDS011;10605;52.968;8.844;2022-09-17T03:16:14;15.15;;;2.90;;
20890;SDS011;10605;52.968;8.844;2022-09-17T03:18:40;16.98;;;2.60;;
20890;SDS011;10605;52.968;8.844;2022-09-17T03:21:05;16.65;;;2.85;;
20890;SDS011;10605;52.968;8.844;2022-09-17T03:23:35;16.95;;;2.63;;
20890;SDS011;10605;52.968;8.844;2022-09-17T03:26:01;22.08;;;3.08;;
20890;SDS011;10605;52.968;8.844;2022-09-17T03:28:27;17.73;;;2.83;;
20890;SDS011;10605;52.968;8.844;2022-09-17T03:30:52;21.58;;;2.85;;
20890;SDS011;10605;52.968;8.844;2022-09-17T03:33:18;17.98;;;2.17;;
20890;SDS011;10605;52.968;8.844;2022-09-17T03:35:44;12.85;;;2.38;;
20890;SDS011;10605;52.968;8.844;2022-09-17T03:38:10;24.92;;;2.30;;
20890;SDS011;10605;52.968;8.844;2022-09-17T03:40:37;16.65;;;3.13;;
20890;SDS011;10605;52.968;8.844;2022-09-17T03:43:03;22.20;;;3.17;;
20890;SDS011;10605;52.968;8.844;2022-09-17T03:45:30;17.48;;;1.98;;
20890;SDS011;10605;52.968;8.844;2022-09-17T03:47:56;16.38;;;2.42;;
20890;SDS011;10605;52.968;8.844;2022-09-17T03:50:22;22.80;;;3.38;;
20890;SDS011;10605;52.968;8.844;2022-09-17T03:52:47;20.08;;;2.75;;
20890;SDS011;10605;52.968;8.844;2022-09-17T03:55:13;15.10;;;2.35;;
20890;SDS011;10605;52.968;8.844;2022-09-17T03:57:41;16.67;;;2.75;;
20890;SDS011;10605;52.968;8.844;2022-09-17T04:00:07;24.77;;;3.10;;
20890;SDS011;10605;52.968;8.844;2022-09-17T04:02:33;23.05;;;2.90;;
20890;SDS011;10605;52.968;8.844;2022-09-17T04:04:59;23.52;;;2.75;;
20890;SDS011;10605;52.968;8.844;2022-09-17T04:07:25;21.83;;;2.40;;
20890;SDS011;10605;52.968;8.844;2022-09-17T04:09:50;22.33;;;3.15;;
20890;SDS011;10605;52.968;8.844;2022-09-17T04:12:16;23.13;;;2.58;;
20890;SDS011;10605;52.968;8.844;2022-09-17T04:14:42;18.35;;;2.90;;
20890;SDS011;10605;52.968;8.844;2022-09-17T04:17:07;22.98;;;3.00;;
20890;SDS011;10605;52.968;8.844;2022-09-17T04:19:33;21.55;;;2.67;;
20890;SDS011;10605;52.968;8.844;2022-09-17T04:21:58;15.80;;;2.97;;
20890;SDS011;10605;52.968;8.844;2022-09-17T04:24:24;15.73;;;2.28;;
20890;SDS011;10605;52.968;8.844;2022-09-17T04:26:50;33.75;;;3.05;;
20890;SDS011;10605;52.968;8.844;2022-09-17T04:29:15;19.98;;;2.08;;
20890;SDS011;10605;52.968;8.844;2022-09-17T04:31:41;20.80;;;1.92;;
20890;SDS011;10605;52.968;8.844;2022-09-17T04:34:06;19.42;;;2.65;;
20890;SDS011;10605;52.968;8.844;2022-09-17T04:36:32;16.60;;;2.75;;
20890;SDS011;10605;52.968;8.844;2022-09-17T04:38:58;16.85;;;2.92;;
20890;SDS011;10605;52.968;8.844;2022-09-17T04:41:23;24.77;;;3.15;;
20890;SDS011;10605;52.968;8.844;2022-09-17T04:43:49;16.33;;;2.30;;
20890;SDS011;10605;52.968;8.844;2022-09-17T04:46:15;25.70;;;3.05;;
20890;SDS011;10605;52.968;8.844;2022-09-17T04:48:41;25.33;;;3.20;;
20890;SDS011;10605;52.968;8.844;2022-09-17T04:51:06;21.27;;;2.95;;
20890;SDS011;10605;52.968;8.844;2022-09-17T04:53:32;17.75;;;3.00;;
20890;SDS011;10605;52.968;8.844;2022-09-17T04:55:58;24.55;;;2.95;;
20890;SDS011;10605;52.968;8.844;2022-09-17T04:58:23;27.95;;;3.65;;
20890;SDS011;10605;52.968;8.844;2022-09-17T05:00:49;20.95;;;3.03;;
20890;SDS011;10605;52.968;8.844;2022-09-17T05:03:15;15.18;;;2.65;;
20890;SDS011;10605;52.968;8.844;2022-09-17T05:05:40;23.20;;;2.83;;
20890;SDS011;10605;52.968;8.844;2022-09-17T05:08:06;25.98;;;3.33;;
20890;SDS011;10605;52.968;8.844;2022-09-17T05:10:32;29.38;;;2.70;;
20890;SDS011;10605;52.968;8.844;2022-09-17T05:12:58;23.60;;;2.83;;
20890;SDS011;10605;52.968;8.844;2022-09-17T05:15:24;17.63;;;1.90;;
20890;SDS011;10605;52.968;8.844;2022-09-17T05:17:50;22.83;;;3.33;;
20890;SDS011;10605;52.968;8.844;2022-09-17T05:20:16;21.70;;;2.85;;
20890;SDS011;10605;52.968;8.844;2022-09-17T05:22:43;16.73;;;2.42;;
20890;SDS011;10605;52.968;8.844;2022-09-17T05:25:10;15.70;;;2.47;;
20890;SDS011;10605;52.968;8.844;2022-09-17T05:27:37;18.85;;;2.53;;
20890;SDS011;10605;52.968;8.844;2022-09-17T05:30:03;20.92;;;2.45;;
20890;SDS011;10605;52.968;8.844;2022-09-17T05:32:29;17.50;;;2.47;;
20890;SDS011;10605;52.968;8.844;2022-09-17T05:34:55;13.45;;;2.53;;
20890;SDS011;10605;52.968;8.844;2022-09-17T05:37:21;14.60;;;1.95;;
20890;SDS011;10605;52.968;8.844;2022-09-17T05:39:46;8.77;;;2.17;;
20890;SDS011;10605;52.968;8.844;2022-09-17T05:42:12;16.58;;;2.10;;
20890;SDS011;10605;52.968;8.844;2022-09-17T05:44:37;18.27;;;2.20;;
20890;SDS011;10605;52.968;8.844;2022-09-17T05:47:03;15.18;;;2.55;;
20890;SDS011;10605;52.968;8.844;2022-09-17T05:49:29;11.27;;;1.83;;
20890;SDS011;10605;52.968;8.844;2022-09-17T05:51:54;15.50;;;2.92;;
20890;SDS011;10605;52.968;8.844;2022-09-17T05:54:20;13.73;;;2.25;;
20890;SDS011;10605;52.968;8.844;2022-09-17T05:56:46;13.77;;;1.80;;
20890;SDS011;10605;52.968;8.844;2022-09-17T05:59:11;10.77;;;1.98;;
20890;SDS011;10605;52.968;8.844;2022-09-17T06:01:38;12.93;;;2.00;;
20890;SDS011;10605;52.968;8.844;2022-09-17T06:04:04;16.77;;;1.98;;
20890;SDS011;10605;52.968;8.844;2022-09-17T06:06:30;12.90;;;2.15;;
20890;SDS011;10605;52.968;8.844;2022-09-17T06:08:58;14.05;;;2.30;;
20890;SDS011;10605;52.968;8.844;2022-09-17T06:11:24;11.23;;;2.08;;
20890;SDS011;10605;52.968;8.844;2022-09-17T06:13:54;15.18;;;2.25;;
20890;SDS011;10605;52.968;8.844;2022-09-17T06:16:23;11.63;;;2.20;;
20890;SDS011;10605;52.968;8.844;2022-09-17T06:18:48;11.93;;;2.28;;
20890;SDS011;10605;52.968;8.844;2022-09-17T06:21:16;17.27;;;2.35;;
20890;SDS011;10605;52.968;8.844;2022-09-17T06:23:43;10.10;;;2.13;;
20890;SDS011;10605;52.968;8.844;2022-09-17T06:26:08;15.07;;;2.53;;
20890;SDS011;10605;52.968;8.844;2022-09-17T06:28:35;17.75;;;3.17;;
20890;SDS011;10605;52.968;8.844;2022-09-17T06:31:01;16.23;;;2.08;;
20890;SDS011;10605;52.968;8.844;2022-09-17T06:33:29;15.65;;;2.10;;
20890;SDS011;10605;52.968;8.844;2022-09-17T06:35:56;10.35;;;1.95;;
20890;SDS011;10605;52.968;8.844;2022-09-17T06:38:24;12.05;;;2.22;;
20890;SDS011;10605;52.968;8.844;2022-09-17T06:40:51;9.50;;;1.85;;
20890;SDS011;10605;52.968;8.844;2022-09-17T06:43:17;11.77;;;2.13;;
20890;SDS011;10605;52.968;8.844;2022-09-17T06:45:43;9.20;;;2.10;;
20890;SDS011;10605;52.968;8.844;2022-09-17T06:48:08;12.60;;;1.88;;
20890;SDS011;10605;52.968;8.844;2022-09-17T06:50:34;12.32;;;2.22;;
20890;SDS011;10605;52.968;8.844;2022-09-17T06:52:59;13.98;;;2.15;;
20890;SDS011;10605;52.968;8.844;2022-09-17T06:55:26;15.93;;;1.80;;
20890;SDS011;10605;52.968;8.844;2022-09-17T06:57:52;9.75;;;2.58;;
20890;SDS011;10605;52.968;8.844;2022-09-17T07:00:18;11.48;;;1.98;;
20890;SDS011;10605;52.968;8.844;2022-09-17T07:02:50;9.52;;;2.13;;
20890;SDS011;10605;52.968;8.844;2022-09-17T07:05:20;17.50;;;2.50;;
20890;SDS011;10605;52.968;8.844;2022-09-17T07:07:45;18.13;;;2.20;;
20890;SDS011;10605;52.968;8.844;2022-09-17T07:10:11;12.38;;;2.15;;
20890;SDS011;10605;52.968;8.844;2022-09-17T07:12:40;9.43;;;2.20;;
20890;SDS011;10605;52.968;8.844;2022-09-17T07:15:08;11.88;;;1.98;;
20890;SDS011;10605;52.968;8.844;2022-09-17T07:17:39;14.82;;;2.45;;
20890;SDS011;10605;52.968;8.844;2022-09-17T07:20:08;17.10;;;2.25;;
20890;SDS011;10605;52.968;8.844;2022-09-17T07:22:35;10.00;;;2.58;;
20890;SDS011;10605;52.968;8.844;2022-09-17T07:25:01;11.35;;;1.95;;
20890;SDS011;10605;52.968;8.844;2022-09-17T07:27:27;8.38;;;2.03;;
20890;SDS011;10605;52.968;8.844;2022-09-17T07:29:54;7.47;;;1.85;;
20890;SDS011;10605;52.968;8.844;2022-09-17T07:32:20;9.00;;;1.98;;
20890;SDS011;10605;52.968;8.844;2022-09-17T07:34:46;8.57;;;2.17;;
20890;SDS011;10605;52.968;8.844;2022-09-17T07:37:15;16.52;;;2.67;;
20890;SDS011;10605;52.968;8.844;2022-09-17T07:39:41;14.98;;;1.95;;
20890;SDS011;10605;52.968;8.844;2022-09-17T07:42:07;11.40;;;1.85;;
20890;SDS011;10605;52.968;8.844;2022-09-17T07:44:33;13.40;;;1.83;;
20890;SDS011;10605;52.968;8.844;2022-09-17T07:46:58;8.93;;;1.95;;
20890;SDS011;10605;52.968;8.844;2022-09-17T07:49:24;11.52;;;2.17;;
20890;SDS011;10605;52.968;8.844;2022-09-17T07:51:50;14.57;;;1.85;;
20890;SDS011;10605;52.968;8.844;2022-09-17T07:54:21;5.60;;;1.90;;
20890;SDS011;10605;52.968;8.844;2022-09-17T07:56:50;9.40;;;1.70;;
20890;SDS011;10605;52.968;8.844;2022-09-17T07:59:28;10.98;;;1.80;;
20890;SDS011;10605;52.968;8.844;2022-09-17T08:01:54;7.80;;;2.03;;
20890;SDS011;10605;52.968;8.844;2022-09-17T08:04:20;8.98;;;2.28;;
20890;SDS011;10605;52.968;8.844;2022-09-17T08:06:46;5.72;;;1.80;;
20890;SDS011;10605;52.968;8.844;2022-09-17T08:09:21;5.70;;;1.48;;
20890;SDS011;10605;52.968;8.844;2022-09-17T08:11:53;15.70;;;2.80;;
20890;SDS011;10605;52.968;8.844;2022-09-17T08:14:21;13.88;;;2.30;;
20890;SDS011;10605;52.968;8.844;2022-09-17T08:16:47;8.40;;;1.60;;
20890;SDS011;10605;52.968;8.844;2022-09-17T08:19:13;9.02;;;1.77;;
20890;SDS011;10605;52.968;8.844;2022-09-17T08:21:39;7.32;;;2.15;;
20890;SDS011;10605;52.968;8.844;2022-09-17T08:24:05;14.52;;;1.95;;
20890;SDS011;10605;52.968;8.844;2022-09-17T08:26:33;7.70;;;1.83;;
20890;SDS011;10605;52.968;8.844;2022-09-17T08:28:58;9.55;;;2.70;;
20890;SDS011;10605;52.968;8.844;2022-09-17T08:31:25;8.23;;;1.83;;
20890;SDS011;10605;52.968;8.844;2022-09-17T08:33:52;8.48;;;1.92;;
20890;SDS011;10605;52.968;8.844;2022-09-17T08:36:18;10.27;;;1.95;;
20890;SDS011;10605;52.968;8.844;2022-09-17T08:38:46;12.32;;;1.60;;
20890;SDS011;10605;52.968;8.844;2022-09-17T08:46:40;12.00;;;2.33;;
20890;SDS011;10605;52.968;8.844;2022-09-17T08:49:22;8.93;;;1.90;;
20890;SDS011;10605;52.968;8.844;2022-09-17T08:51:58;10.05;;;1.65;;
20890;SDS011;10605;52.968;8.844;2022-09-17T08:54:56;3.88;;;1.83;;
20890;SDS011;10605;52.968;8.844;2022-09-17T09:00:18;10.73;;;2.20;;
20890;SDS011;10605;52.968;8.844;2022-09-17T09:08:27;11.90;;;1.90;;
20890;SDS011;10605;52.968;8.844;2022-09-17T09:11:00;8.15;;;1.67;;
20890;SDS011;10605;52.968;8.844;2022-09-17T09:13:38;12.63;;;2.10;;
20890;SDS011;10605;52.968;8.844;2022-09-17T09:16:15;11.50;;;2.17;;
20890;SDS011;10605;52.968;8.844;2022-09-17T09:18:58;10.65;;;2.15;;
20890;SDS011;10605;52.968;8.844;2022-09-17T09:21:38;10.35;;;1.65;;
20890;SDS011;10605;52.968;8.844;2022-09-17T09:24:17;16.42;;;2.17;;
20890;SDS011;10605;52.968;8.844;2022-09-17T09:26:53;12.55;;;2.25;;
20890;SDS011;10605;52.968;8.844;2022-09-17T09:34:52;9.65;;;1.35;;
20890;SDS011;10605;52.968;8.844;2022-09-17T09:37:23;8.95;;;1.33;;
20890;SDS011;10605;52.968;8.844;2022-09-17T09:39:52;7.65;;;1.38;;
20890;SDS011;10605;52.968;8.844;2022-09-17T09:42:26;9.43;;;1.50;;
20890;SDS011;10605;52.968;8.844;2022-09-17T09:44:56;1.38;;;0.73;;
20890;SDS011;10605;52.968;8.844;2022-09-17T09:50:46;4.90;;;0.90;;
20890;SDS011;10605;52.968;8.844;2022-09-17T09:54:12;3.65;;;0.98;;
20890;SDS011;10605;52.968;8.844;2022-09-17T09:59:12;5.03;;;1.30;;
20890;SDS011;10605;52.968;8.844;2022-09-17T10:01:40;7.50;;;1.42;;
20890;SDS011;10605;52.968;8.844;2022-09-17T10:04:13;7.65;;;1.77;;
20890;SDS011;10605;52.968;8.844;2022-09-17T10:06:48;4.28;;;1.20;;
20890;SDS011;10605;52.968;8.844;2022-09-17T10:09:17;6.55;;;1.38;;
20890;SDS011;10605;52.968;8.844;2022-09-17T10:11:59;5.32;;;1.02;;
20890;SDS011;10605;52.968;8.844;2022-09-17T10:14:38;5.47;;;1.25;;
20890;SDS011;10605;52.968;8.844;2022-09-17T10:22:35;2.72;;;1.25;;
20890;SDS011;10605;52.968;8.844;2022-09-17T10:25:04;7.03;;;1.42;;
20890;SDS011;10605;52.968;8.844;2022-09-17T10:27:42;9.15;;;1.80;;
20890;SDS011;10605;52.968;8.844;2022-09-17T10:30:14;5.72;;;1.45;;
20890;SDS011;10605;52.968;8.844;2022-09-17T10:32:41;6.45;;;1.20;;
20890;SDS011;10605;52.968;8.844;2022-09-17T10:42:46;3.97;;;1.35;;
20890;SDS011;10605;52.968;8.844;2022-09-17T10:45:25;5.18;;;1.30;;
20890;SDS011;10605;52.968;8.844;2022-09-17T10:47:55;3.70;;;1.13;;
20890;SDS011;10605;52.968;8.844;2022-09-17T10:50:25;3.65;;;1.40;;
20890;SDS011;10605;52.968;8.844;2022-09-17T10:52:55;5.53;;;1.20;;
20890;SDS011;10605;52.968;8.844;2022-09-17T11:17:43;3.50;;;1.00;;
20890;SDS011;10605;52.968;8.844;2022-09-17T11:30:25;4.43;;;1.45;;
20890;SDS011;10605;52.968;8.844;2022-09-17T11:33:30;5.85;;;1.23;;
20890;SDS011;10605;52.968;8.844;2022-09-17T11:39:35;4.63;;;1.23;;
20890;SDS011;10605;52.968;8.844;2022-09-17T11:46:34;6.28;;;1.13;;
20890;SDS011;10605;52.968;8.844;2022-09-17T11:55:55;8.25;;;1.10;;
20890;SDS011;10605;52.968;8.844;2022-09-17T12:01:26;4.05;;;0.98;;
20890;SDS011;10605;52.968;8.844;2022-09-17T12:07:01;5.10;;;1.00;;
20890;SDS011;10605;52.968;8.844;2022-09-17T12:09:59;5.93;;;1.63;;
20890;SDS011;10605;52.968;8.844;2022-09-17T12:12:43;7.47;;;1.45;;
20890;SDS011;10605;52.968;8.844;2022-09-17T12:15:21;5.70;;;1.50;;
20890;SDS011;10605;52.968;8.844;2022-09-17T12:20:31;5.75;;;1.10;;
20890;SDS011;10605;52.968;8.844;2022-09-17T12:23:01;6.35;;;1.20;;
20890;SDS011;10605;52.968;8.844;2022-09-17T12:25:33;5.72;;;1.00;;
20890;SDS011;10605;52.968;8.844;2022-09-17T12:28:11;6.60;;;1.08;;
20890;SDS011;10605;52.968;8.844;2022-09-17T12:30:48;6.07;;;1.17;;
20890;SDS011;10605;52.968;8.844;2022-09-17T12:36:05;5.03;;;1.27;;
20890;SDS011;10605;52.968;8.844;2022-09-17T12:50:04;9.30;;;1.77;;
20890;SDS011;10605;52.968;8.844;2022-09-17T13:00:44;8.63;;;1.73;;
20890;SDS011;10605;52.968;8.844;2022-09-17T13:03:23;3.88;;;1.08;;
20890;SDS011;10605;52.968;8.844;2022-09-17T13:11:38;11.00;;;2.13;;
20890;SDS011;10605;52.968;8.844;2022-09-17T13:17:27;6.13;;;1.83;;
20890;SDS011;10605;52.968;8.844;2022-09-17T13:22:43;8.15;;;2.25;;
20890;SDS011;10605;52.968;8.844;2022-09-17T13:25:12;7.78;;;1.50;;
20890;SDS011;10605;52.968;8.844;2022-09-17T13:27:44;13.35;;;1.85;;
20890;SDS011;10605;52.968;8.844;2022-09-17T13:30:15;8.73;;;1.83;;
20890;SDS011;10605;52.968;8.844;2022-09-17T13:32:48;10.80;;;2.00;;
20890;SDS011;10605;52.968;8.844;2022-09-17T13:40:24;11.63;;;1.88;;
20890;SDS011;10605;52.968;8.844;2022-09-17T13:42:54;13.20;;;2.25;;
20890;SDS011;10605;52.968;8.844;2022-09-17T13:45:23;7.47;;;1.92;;
20890;SDS011;10605;52.968;8.844;2022-09-17T13:47:51;6.07;;;1.80;;
20890;SDS011;10605;52.968;8.844;2022-09-17T13:50:33;10.50;;;2.75;;
20890;SDS011;10605;52.968;8.844;2022-09-17T13:53:07;8.10;;;1.60;;
20890;SDS011;10605;52.968;8.844;2022-09-17T13:55:50;12.30;;;1.95;;
20890;SDS011;10605;52.968;8.844;2022-09-17T14:01:03;10.32;;;1.90;;
20890;SDS011;10605;52.968;8.844;2022-09-17T14:13:52;9.82;;;2.05;;
20890;SDS011;10605;52.968;8.844;2022-09-17T14:24:36;13.40;;;2.30;;
20890;SDS011;10605;52.968;8.844;2022-09-17T14:27:10;7.32;;;1.80;;
20890;SDS011;10605;52.968;8.844;2022-09-17T14:32:13;7.07;;;1.65;;
20890;SDS011;10605;52.968;8.844;2022-09-17T14:34:43;7.95;;;1.38;;
20890;SDS011;10605;52.968;8.844;2022-09-17T14:37:12;13.77;;;1.90;;
20890;SDS011;10605;52.968;8.844;2022-09-17T14:39:41;11.57;;;1.50;;
20890;SDS011;10605;52.968;8.844;2022-09-17T14:42:18;5.50;;;1.60;;
20890;SDS011;10605;52.968;8.844;2022-09-17T14:44:58;5.78;;;1.30;;
20890;SDS011;10605;52.968;8.844;2022-09-17T14:47:26;4.38;;;1.65;;
20890;SDS011;10605;52.968;8.844;2022-09-17T14:49:52;8.80;;;1.63;;
20890;SDS011;10605;52.968;8.844;2022-09-17T14:52:23;12.38;;;2.13;;
20890;SDS011;10605;52.968;8.844;2022-09-17T14:55:17;8.10;;;2.63;;
20890;SDS011;10605;52.968;8.844;2022-09-17T14:57:54;9.18;;;2.10;;
20890;SDS011;10605;52.968;8.844;2022-09-17T15:02:54;18.67;;;5.78;;
20890;SDS011;10605;52.968;8.844;2022-09-17T15:08:04;8.68;;;2.33;;
20890;SDS011;10605;52.968;8.844;2022-09-17T15:10:34;14.88;;;2.78;;
20890;SDS011;10605;52.968;8.844;2022-09-17T15:13:15;18.70;;;2.33;;
20890;SDS011;10605;52.968;8.844;2022-09-17T15:18:59;14.68;;;2.00;;
20890;SDS011;10605;52.968;8.844;2022-09-17T15:21:41;7.88;;;2.22;;
20890;SDS011;10605;52.968;8.844;2022-09-17T15:24:33;17.70;;;1.85;;
20890;SDS011;10605;52.968;8.844;2022-09-17T15:27:18;11.27;;;2.20;;
20890;SDS011;10605;52.968;8.844;2022-09-17T15:30:24;13.30;;;2.63;;
20890;SDS011;10605;52.968;8.844;2022-09-17T15:32:52;7.65;;;2.08;;
20890;SDS011;10605;52.968;8.844;2022-09-17T15:35:21;12.80;;;1.70;;
20890;SDS011;10605;52.968;8.844;2022-09-17T15:38:01;12.45;;;2.00;;
20890;SDS011;10605;52.968;8.844;2022-09-17T15:40:42;16.52;;;2.47;;
20890;SDS011;10605;52.968;8.844;2022-09-17T15:45:55;6.85;;;1.70;;
20890;SDS011;10605;52.968;8.844;2022-09-17T15:51:00;9.45;;;2.10;;
20890;SDS011;10605;52.968;8.844;2022-09-17T15:53:29;14.52;;;2.42;;
20890;SDS011;10605;52.968;8.844;2022-09-17T15:56:06;8.35;;;1.33;;
20890;SDS011;10605;52.968;8.844;2022-09-17T15:58:35;13.93;;;2.40;;
20890;SDS011;10605;52.968;8.844;2022-09-17T16:08:45;15.43;;;2.03;;
20890;SDS011;10605;52.968;8.844;2022-09-17T16:11:13;9.80;;;1.95;;
20890;SDS011;10605;52.968;8.844;2022-09-17T16:13:41;11.85;;;2.08;;
20890;SDS011;10605;52.968;8.844;2022-09-17T16:16:13;9.93;;;2.55;;
20890;SDS011;10605;52.968;8.844;2022-09-17T16:18:40;13.52;;;2.08;;
20890;SDS011;10605;52.968;8.844;2022-09-17T16:21:07;16.48;;;2.63;;
20890;SDS011;10605;52.968;8.844;2022-09-17T16:23:35;10.02;;;2.35;;
20890;SDS011;10605;52.968;8.844;2022-09-17T16:26:01;19.98;;;2.50;;
20890;SDS011;10605;52.968;8.844;2022-09-17T16:28:28;11.35;;;2.00;;
20890;SDS011;10605;52.968;8.844;2022-09-17T16:30:55;16.65;;;3.50;;
20890;SDS011;10605;52.968;8.844;2022-09-17T16:33:21;16.67;;;3.00;;
20890;SDS011;10605;52.968;8.844;2022-09-17T16:35:47;17.38;;;3.13;;
20890;SDS011;10605;52.968;8.844;2022-09-17T16:38:13;18.20;;;2.60;;
20890;SDS011;10605;52.968;8.844;2022-09-17T16:40:43;15.02;;;2.95;;
20890;SDS011;10605;52.968;8.844;2022-09-17T16:43:11;14.52;;;2.72;;
20890;SDS011;10605;52.968;8.844;2022-09-17T16:45:39;9.93;;;3.35;;
20890;SDS011;10605;52.968;8.844;2022-09-17T16:48:05;12.93;;;4.03;;
20890;SDS011;10605;52.968;8.844;2022-09-17T16:50:31;14.82;;;7.18;;
20890;SDS011;10605;52.968;8.844;2022-09-17T16:52:57;10.82;;;3.35;;
20890;SDS011;10605;52.968;8.844;2022-09-17T16:55:23;17.23;;;3.15;;
20890;SDS011;10605;52.968;8.844;2022-09-17T16:57:49;8.75;;;2.25;;
20890;SDS011;10605;52.968;8.844;2022-09-17T17:00:16;7.28;;;1.50;;
20890;SDS011;10605;52.968;8.844;2022-09-17T17:02:50;13.82;;;2.47;;
20890;SDS011;10605;52.968;8.844;2022-09-17T17:05:20;14.57;;;2.95;;
20890;SDS011;10605;52.968;8.844;2022-09-17T17:07:46;9.23;;;1.95;;
20890;SDS011;10605;52.968;8.844;2022-09-17T17:10:12;13.38;;;2.53;;
20890;SDS011;10605;52.968;8.844;2022-09-17T17:12:37;13.82;;;2.22;;
20890;SDS011;10605;52.968;8.844;2022-09-17T17:15:03;14.05;;;2.33;;
20890;SDS011;10605;52.968;8.844;2022-09-17T17:17:30;13.73;;;2.13;;
20890;SDS011;10605;52.968;8.844;2022-09-17T17:20:00;11.55;;;2.22;;
20890;SDS011;10605;52.968;8.844;2022-09-17T17:22:28;16.40;;;2.50;;
20890;SDS011;10605;52.968;8.844;2022-09-17T17:24:54;14.40;;;2.60;;
20890;SDS011;10605;52.968;8.844;2022-09-17T17:27:20;13.18;;;2.65;;
20890;SDS011;10605;52.968;8.844;2022-09-17T17:29:46;17.17;;;2.15;;
20890;SDS011;10605;52.968;8.844;2022-09-17T17:32:11;19.45;;;3.65;;
20890;SDS011;10605;52.968;8.844;2022-09-17T17:34:37;8.63;;;2.10;;
20890;SDS011;10605;52.968;8.844;2022-09-17T17:37:05;13.63;;;2.03;;
20890;SDS011;10605;52.968;8.844;2022-09-17T17:39:31;13.15;;;2.30;;
20890;SDS011;10605;52.968;8.844;2022-09-17T17:41:56;15.98;;;2.30;;
20890;SDS011;10605;52.968;8.844;2022-09-17T17:44:23;17.60;;;2.85;;
20890;SDS011;10605;52.968;8.844;2022-09-17T17:46:48;18.30;;;2.50;;
20890;SDS011;10605;52.968;8.844;2022-09-17T17:49:14;20.60;;;2.90;;
20890;SDS011;10605;52.968;8.844;2022-09-17T17:51:40;15.80;;;2.83;;
20890;SDS011;10605;52.968;8.844;2022-09-17T17:54:05;13.93;;;2.67;;
20890;SDS011;10605;52.968;8.844;2022-09-17T17:56:32;13.70;;;2.65;;
20890;SDS011;10605;52.968;8.844;2022-09-17T17:59:00;11.18;;;2.50;;
20890;SDS011;10605;52.968;8.844;2022-09-17T18:01:33;11.55;;;2.50;;
20890;SDS011;10605;52.968;8.844;2022-09-17T18:04:03;18.63;;;2.88;;
20890;SDS011;10605;52.968;8.844;2022-09-17T18:06:35;20.42;;;3.45;;
20890;SDS011;10605;52.968;8.844;2022-09-17T18:09:12;18.48;;;3.42;;
20890;SDS011;10605;52.968;8.844;2022-09-17T18:11:37;15.38;;;3.28;;
20890;SDS011;10605;52.968;8.844;2022-09-17T18:14:08;25.67;;;4.70;;
20890;SDS011;10605;52.968;8.844;2022-09-17T18:16:36;16.77;;;3.20;;
20890;SDS011;10605;52.968;8.844;2022-09-17T18:19:02;8.00;;;2.22;;
20890;SDS011;10605;52.968;8.844;2022-09-17T18:21:28;13.40;;;3.00;;
20890;SDS011;10605;52.968;8.844;2022-09-17T18:23:53;17.00;;;4.10;;
20890;SDS011;10605;52.968;8.844;2022-09-17T18:26:22;15.85;;;4.07;;
20890;SDS011;10605;52.968;8.844;2022-09-17T18:28:50;23.27;;;3.28;;
20890;SDS011;10605;52.968;8.844;2022-09-17T18:31:26;15.07;;;2.78;;
20890;SDS011;10605;52.968;8.844;2022-09-17T18:33:54;18.85;;;4.03;;
20890;SDS011;10605;52.968;8.844;2022-09-17T18:36:21;18.85;;;2.95;;